NCAR-RAP Real-Time Weather Data

Output produced by METARs form (12 May 2021  10:43 UTC)
found at http://weather.rap.ucar.edu/surface/
 
KSJT 120951Z AUTO 01009KT 10SM OVC010 13/11 A3021 RMK AO2 CIG 009V013 SLP219 T01330106
KSJT 120851Z AUTO 02013KT 10SM OVC012 14/11 A3019 RMK AO2 SLP214 T01390106 51015
KSJT 120751Z AUTO 03013KT 10SM OVC014 14/11 A3018 RMK AO2 SLP212 T01390106
KSJT 120741Z AUTO 03015G19KT 10SM OVC014 14/11 A3018 RMK AO2 T01390106
KSJT 120658Z AUTO 04012KT 10SM BKN015 OVC019 14/11 A3017 RMK AO2 T01440111
KSJT 120651Z AUTO 04011G21KT 10SM OVC012 14/11 A3016 RMK AO2 SLP205 T01440111
KSJT 120551Z AUTO 04010KT 10SM OVC011 14/12 A3015 RMK AO2 SLP200 T01440117 10189 20144 402000133 50014
KSJT 120451Z AUTO 04013KT 10SM OVC014 14/12 A3015 RMK AO2 SLP203 T01440117
KSJT 120437Z AUTO 05010KT 10SM OVC014 15/12 A3015 RMK AO2 T01500117
KSJT 120405Z AUTO 04016G22KT 10SM OVC015 15/12 A3014 RMK AO2 T01500117
KSJT 120351Z AUTO 05013KT 10SM OVC013 15/12 A3013 RMK AO2 SLP197 T01500117
KSJT 120310Z AUTO 04011KT 10SM OVC014 15/12 A3012 RMK AO2 T01500117
KSJT 120300Z AUTO 03013KT 10SM BKN015 OVC021 15/12 A3011 RMK AO2 T01500117
KSJT 120251Z AUTO 04010KT 10SM BKN013 OVC019 15/12 A3011 RMK AO2 SLP187 T01500117 53029
KSJT 120206Z AUTO 03011KT 10SM BKN011 OVC014 15/12 A3006 RMK AO2 T01500122
KSJT 120151Z AUTO 03016KT 7SM OVC009 14/12 A3005 RMK AO2 CIG 008V012 SLP167 T01440122
KSJT 120109Z 04014KT 5SM HZ OVC009 16/13 A3005 RMK AO2 T01560128
KSJT 120051Z 02015KT 9SM OVC010 16/13 A3003 RMK AO2 SLP160 T01610133
KSJT 120034Z 03015KT 9SM BKN010 OVC024 16/13 A3002 RMK AO2 T01610133
KSJT 112351Z 05012KT 10SM BKN024 OVC031 19/14 A3001 RMK AO2 SLP153 T01890144 10200 20161 53010
KSJT 112251Z 06009KT 10SM OVC033 20/14 A2998 RMK AO2 SLP142 T02000144
KSJT 112220Z 05011KT 10SM SCT020 OVC031 19/14 A2998 RMK AO2 T01940139
KSJT 112151Z 07010KT 10SM FEW018 OVC029 19/14 A2999 RMK AO2 SLP143 T01940144
KSJT 112113Z 03012KT 10SM BKN017 OVC029 19/14 A2998 RMK AO2 T01940144
KSJT 112051Z 04009KT 10SM BKN014 OVC029 19/14 A2998 RMK AO2 SLP142 T01890144 58012
KSJT 111951Z 06009KT 10SM OVC011 18/14 A3000 RMK AO2 SLP149 T01780144